createdAt,value
2022-09-18T00:25:54.227Z,7.63
2022-09-18T00:55:54.234Z,7.56
2022-09-18T01:25:54.235Z,7.69
2022-09-18T01:55:54.231Z,8.19
2022-09-18T02:25:54.234Z,8.31
2022-09-18T02:55:54.251Z,8.38
2022-09-18T03:25:54.277Z,8.5
2022-09-18T03:55:54.265Z,8.56
2022-09-18T04:25:54.261Z,8.63
2022-09-18T04:55:54.273Z,8.75
2022-09-18T05:25:54.284Z,8.81
2022-09-18T05:55:54.269Z,9
2022-09-18T06:25:54.271Z,8.88
2022-09-18T06:55:54.286Z,9
2022-09-18T07:25:54.294Z,8.88
2022-09-18T07:55:54.292Z,9.13
2022-09-18T08:25:54.286Z,8.81
2022-09-18T08:55:54.319Z,8.94
2022-09-18T09:25:54.289Z,9.56
2022-09-18T09:55:54.315Z,10.19
2022-09-18T10:25:54.306Z,10.25
2022-09-18T10:55:56.042Z,11.13
2022-09-18T11:25:54.336Z,10.69
2022-09-18T11:55:54.335Z,9.44
2022-09-18T12:25:52.961Z,9.69
2022-09-18T12:55:53.627Z,10.38
2022-09-18T13:25:54.328Z,10.94
2022-09-18T13:55:54.326Z,11
2022-09-18T14:25:54.304Z,10.81
2022-09-18T14:55:54.332Z,10.44
2022-09-18T15:25:54.344Z,9.19
2022-09-18T15:55:54.388Z,9.06
2022-09-18T16:25:54.352Z,8.94
2022-09-18T16:55:54.360Z,8.94
2022-09-18T17:25:54.388Z,9
2022-09-18T17:55:54.379Z,9
2022-09-18T18:25:54.386Z,8.81
2022-09-18T18:55:54.392Z,8.75
2022-09-18T19:25:54.409Z,8.13
2022-09-18T19:55:54.399Z,7.94
2022-09-18T20:25:54.428Z,6.88
2022-09-18T20:55:54.421Z,6.69
2022-09-18T21:25:54.427Z,6.75
2022-09-18T21:55:54.417Z,6.63
2022-09-18T22:25:54.451Z,6.75
2022-09-18T22:55:54.482Z,6.5
2022-09-18T23:25:54.446Z,6
2022-09-18T23:55:54.445Z,5.81
